Coffee Creek, Montana
Current Conditions -  °F | °C
As of 10:54 PM on Thursday 30 Oct 2014 (Local Time) from KLWT Reporting Station
Clear Clear  
Wind Chill: 42°   Ceiling: Unl
Heat Index: 46°   Visibility: 10mi
Dew Point: 32°   Wind: 7mph
Humidity: 58%   Direction: 90°E
Pressure: 30.14"   Gusts: NA
Location:  47.34°N, 110.08°W
Report Text: KLWT 310454Z AUTO 09006KT 10SM CLR 08/00 A3014 RMK AO2 SLP204 T00780000
Loading
Personal Weather Stations






























Interactive Weather Map
Tropical Storm Tracking
New forecast layout! Learn more

10-Day Weather Forecast

Advertisements
Track Severe Weather on mobile